Due to severe server failure at the provider, not all demo sites are operational. Will take some days to rebuilt everything.

Demonstration site - Click on the  for more information

This is an optional block. Switch it on/off in your settings-file: $SITE['bannerTop'] = false; or $SITE['bannerBottom'] = false;

You can display ads, any other important text or photo’s using text / html or PHP code.

You can place one or more at the top and or bottom and it can all be different for content / size .



Visit our other weather sites:

Template documentation
and downloads

And another site



Nearby METAR Reports

   
EBAW - Antwerp
Updated: 22-09-2020 03:20
Mist, Clear  
Mist, Clear  
   Wind: NNW 3.7 km/h
Wind: NNW 3.7 km/h
Temperature: 15°C
Dew Point: 12°C
Humidity: 82%
Barometer: 1013 hPa
Clouds: Clear
Visibility: 5 km
Cloud details: Clear ft
EBAW 220120Z AUTO 34002KT 4700 BR NCD 15/12 Q1013
EBLG - Liège
Updated: 22-09-2020 03:20
Clear  
Clear  
   Wind: SSE 7.4 km/h
Wind: SSE 7.4 km/h
Temperature: 13°C
Dew Point: 9°C
Humidity: 77%
Barometer: 1013 hPa
Visibility: More than 10 km
Cloud details: Clear ft
EBLG 220120Z 15004KT CAVOK 13/09 Q1013 NOSIG
EBCV - Mons/Bergen
Updated: 22-09-2020 03:22
Mist, Clear  
Mist, Clear  
   Wind: varies 1.9 km/h
Wind: varies 1.9 km/h
Temperature: 8°C
Dew Point: 8°C
Humidity: 100%
Barometer: 1013 hPa
Clouds: Clear
Visibility: 0 km
Cloud details: Clear ft
EBCV 220122Z AUTO VRB01KT 0300 BR NCD 08/08 Q1013 RED
EHBK - Maastricht
Updated: 22-09-2020 03:25
Clear  
Clear  
   Wind: SSW 9.3 km/h
Wind: SSW 9.3 km/h
Temperature: 11°C
Dew Point: 8°C
Humidity: 82%
Barometer: 1013 hPa
Clouds: Clear
Visibility: More than 10 km
Cloud details: Clear ft
EHBK 220125Z AUTO 20005KT 9999 NCD 11/08 Q1013
ELLX - Luxemburg
Updated: 22-09-2020 03:20
Clear  
Clear  
   Wind: SSW 5.6 km/h
Wind: SSW 5.6 km/h
Temperature: 16°C
Dew Point: 6°C
Humidity: 52%
Barometer: 1013 hPa
Clouds: Clear
Visibility: More than 10 km
Cloud details: Clear ft
ELLX 220120Z AUTO 20003KT 9999 NCD 16/06 Q1013 NOSIG
EBOS - Oostende
Updated: 22-09-2020 03:20
Patches of, Fog, Partly Cloudy  
Patches of, Fog, Partly Cloudy  
   Wind: South 1.9 km/h
Wind: South 1.9 km/h
Temperature: 7°C
Dew Point: 7°C
Humidity: 100%
Barometer: 1014 hPa
Clouds: Partly Cloudy
Visibility: 2 km
Cloud details: Partly Cloudy ft
EBOS 220120Z 18001KT 1500 0100S R08/0750D R26/0275N BCFG NSC 07/07 Q1014 TEMPO 0400 FG

Script developed by  Saratoga-weather.org Adapted for the template by  Weerstation Leuven

This is an optional block. Switch it on/off in your settings-file: $SITE['bannerTop'] = false; or $SITE['bannerBottom'] = false;

You can display ads, any other important text or photo’s using text / html or PHP code.

You can place one or more at the top and or bottom and it can all be different for content / size .